createdAt,value
2019-03-11T00:00:36.312Z,20.56
2019-03-11T00:01:36.301Z,20.56
2019-03-11T00:02:36.289Z,20.54
2019-03-11T00:03:36.279Z,20.56
2019-03-11T00:04:36.275Z,20.65
2019-03-11T00:05:36.261Z,20.59
2019-03-11T00:06:36.245Z,20.56
2019-03-11T00:07:36.239Z,20.54
2019-03-11T00:08:36.274Z,20.64
2019-03-11T00:09:36.212Z,20.59
2019-03-11T00:10:36.234Z,20.58
2019-03-11T00:11:36.190Z,20.58
2019-03-11T00:12:36.177Z,20.54
2019-03-11T00:13:36.166Z,20.64
2019-03-11T00:14:36.155Z,20.65
2019-03-11T00:15:36.144Z,20.54
2019-03-11T00:16:36.451Z,20.61
2019-03-11T00:17:36.121Z,20.61
2019-03-11T00:18:36.112Z,20.53
2019-03-11T00:19:36.099Z,20.51
2019-03-11T00:20:36.088Z,20.59
2019-03-11T00:21:36.078Z,20.53
2019-03-11T00:22:36.076Z,20.59
2019-03-11T00:23:36.060Z,20.53
2019-03-11T00:24:36.047Z,20.59
2019-03-11T00:25:36.033Z,20.58
2019-03-11T00:26:36.024Z,20.61
2019-03-11T00:27:36.013Z,20.58
2019-03-11T00:28:36.283Z,20.61
2019-03-11T00:29:35.989Z,20.64
2019-03-11T00:30:35.977Z,20.59
2019-03-11T00:31:35.968Z,20.56
2019-03-11T00:32:35.957Z,20.54
2019-03-11T00:33:35.945Z,20.58
2019-03-11T00:34:35.940Z,20.62
2019-03-11T00:35:35.921Z,20.64
2019-03-11T00:36:35.910Z,20.58
2019-03-11T00:37:35.900Z,20.56
2019-03-11T00:38:35.888Z,20.62
2019-03-11T00:39:35.876Z,20.54
2019-03-11T00:40:35.873Z,20.61
2019-03-11T00:41:35.855Z,20.62
2019-03-11T00:42:35.843Z,20.61
2019-03-11T00:43:35.831Z,20.54
2019-03-11T00:44:35.823Z,20.65
2019-03-11T00:45:35.810Z,20.61
2019-03-11T00:46:35.805Z,20.62
2019-03-11T00:47:35.788Z,20.59
2019-03-11T00:48:35.778Z,20.59
2019-03-11T00:49:35.769Z,20.61
2019-03-11T00:50:35.754Z,20.64
2019-03-11T00:51:35.743Z,20.59
2019-03-11T00:52:35.834Z,20.61
2019-03-11T00:53:35.721Z,20.62
2019-03-11T00:54:35.712Z,20.61
2019-03-11T00:55:35.701Z,20.56
2019-03-11T00:56:35.687Z,20.56
2019-03-11T00:57:35.684Z,20.58
2019-03-11T00:58:35.671Z,20.62
2019-03-11T00:59:35.654Z,20.51
2019-03-11T01:00:35.643Z,20.54
2019-03-11T01:01:35.631Z,20.59
2019-03-11T01:02:35.622Z,20.58
2019-03-11T01:03:35.612Z,20.61
2019-03-11T01:04:35.920Z,20.62
2019-03-11T01:05:35.595Z,20.59
2019-03-11T01:06:35.576Z,20.53
2019-03-11T01:07:35.598Z,20.64
2019-03-11T01:08:35.554Z,20.54
2019-03-11T01:09:35.542Z,20.59
2019-03-11T01:10:35.550Z,20.59
2019-03-11T01:11:35.520Z,20.64
2019-03-11T01:12:35.509Z,20.61
2019-03-11T01:13:35.498Z,20.58
2019-03-11T01:14:36.056Z,20.62
2019-03-11T01:15:35.476Z,20.66
2019-03-11T01:16:35.472Z,20.59
2019-03-11T01:17:35.462Z,20.59
2019-03-11T01:18:35.442Z,20.64
2019-03-11T01:19:35.431Z,20.68
2019-03-11T01:20:35.420Z,20.69
2019-03-11T01:21:35.409Z,20.71
2019-03-11T01:22:35.722Z,20.72
2019-03-11T01:23:35.386Z,20.72
2019-03-11T01:24:35.375Z,20.72
2019-03-11T01:25:35.363Z,20.69
2019-03-11T01:26:35.353Z,20.76
2019-03-11T01:27:35.345Z,20.76
2019-03-11T01:28:35.338Z,20.76
2019-03-11T01:29:35.319Z,20.76
2019-03-11T01:30:35.308Z,20.76
2019-03-11T01:31:35.299Z,20.76
2019-03-11T01:32:35.287Z,20.80
2019-03-11T01:33:35.274Z,20.81
2019-03-11T01:34:35.271Z,20.81
2019-03-11T01:35:35.259Z,20.86
2019-03-11T01:36:35.242Z,20.81
2019-03-11T01:37:35.230Z,20.74
2019-03-11T01:38:35.220Z,20.77
2019-03-11T01:39:35.207Z,20.84
2019-03-11T01:40:35.218Z,20.84
2019-03-11T01:41:35.190Z,20.84
2019-03-11T01:42:35.174Z,20.87
2019-03-11T01:43:35.165Z,20.81
2019-03-11T01:44:35.152Z,20.81
2019-03-11T01:45:35.141Z,20.86
2019-03-11T01:46:35.402Z,20.89
2019-03-11T01:47:35.119Z,20.90
2019-03-11T01:48:35.109Z,20.93
2019-03-11T01:49:35.099Z,20.93
2019-03-11T01:50:35.085Z,20.84
2019-03-11T01:51:35.079Z,20.98
2019-03-11T01:52:35.072Z,20.95
2019-03-11T01:53:35.059Z,20.99
2019-03-11T01:54:35.043Z,20.96
2019-03-11T01:55:35.032Z,20.99
2019-03-11T01:56:35.018Z,20.95
2019-03-11T01:57:35.010Z,20.90
2019-03-11T01:58:35.322Z,21.02
2019-03-11T01:59:34.986Z,21.09
2019-03-11T02:00:34.976Z,20.99
2019-03-11T02:01:34.963Z,20.98
2019-03-11T02:02:34.952Z,21.08
2019-03-11T02:03:34.940Z,21.08
2019-03-11T02:04:35.258Z,21.02
2019-03-11T02:05:34.922Z,21.06
2019-03-11T02:06:34.907Z,21.09
2019-03-11T02:07:34.897Z,21.11
2019-03-11T02:08:34.886Z,21.11
2019-03-11T02:09:34.875Z,21.06
2019-03-11T02:10:34.869Z,21.08
2019-03-11T02:11:34.851Z,21.11
2019-03-11T02:12:34.841Z,21.11
2019-03-11T02:13:34.829Z,21.08
2019-03-11T02:14:34.818Z,21.13
2019-03-11T02:15:34.807Z,21.08
2019-03-11T02:16:34.814Z,21.09
2019-03-11T02:17:34.787Z,21.08
2019-03-11T02:18:34.775Z,21.06
2019-03-11T02:19:34.763Z,21.09
2019-03-11T02:20:34.761Z,21.08
2019-03-11T02:21:34.741Z,21.14
2019-03-11T02:22:34.738Z,21.16
2019-03-11T02:23:34.718Z,21.14
2019-03-11T02:24:34.707Z,21.17
2019-03-11T02:25:34.721Z,21.23
2019-03-11T02:26:34.685Z,21.19
2019-03-11T02:27:34.674Z,21.20
2019-03-11T02:28:34.671Z,21.23
2019-03-11T02:29:34.651Z,21.17
2019-03-11T02:30:34.677Z,21.17
2019-03-11T02:31:34.630Z,21.16
2019-03-11T02:32:34.624Z,21.24
2019-03-11T02:33:34.609Z,21.20
2019-03-11T02:34:34.604Z,21.17
2019-03-11T02:35:34.589Z,21.19
2019-03-11T02:36:34.573Z,21.21
2019-03-11T02:37:34.566Z,21.20
2019-03-11T02:38:34.557Z,21.21
2019-03-11T02:39:34.544Z,21.23
2019-03-11T02:40:34.862Z,21.26
2019-03-11T02:41:34.521Z,21.19
2019-03-11T02:42:34.508Z,21.26
2019-03-11T02:43:34.498Z,21.29
2019-03-11T02:44:34.493Z,21.26
2019-03-11T02:45:34.483Z,21.26
2019-03-11T02:46:34.470Z,21.21
2019-03-11T02:47:34.451Z,21.29
2019-03-11T02:48:34.442Z,21.27
2019-03-11T02:49:34.430Z,21.26
2019-03-11T02:50:34.418Z,21.26
2019-03-11T02:51:34.409Z,21.27
2019-03-11T02:52:34.417Z,21.32
2019-03-11T02:53:34.387Z,21.26
2019-03-11T02:54:34.375Z,21.27
2019-03-11T02:55:34.364Z,21.32
2019-03-11T02:56:34.353Z,21.29
2019-03-11T02:57:34.343Z,21.29
2019-03-11T02:58:34.337Z,21.23
2019-03-11T02:59:34.320Z,21.29
2019-03-11T03:00:34.308Z,21.32
2019-03-11T03:01:34.297Z,21.26
2019-03-11T03:02:34.286Z,21.24
2019-03-11T03:03:34.285Z,21.32
2019-03-11T03:04:34.295Z,21.26
2019-03-11T03:05:34.253Z,21.27
2019-03-11T03:06:34.242Z,21.30
2019-03-11T03:07:34.232Z,21.21
2019-03-11T03:08:34.220Z,21.26
2019-03-11T03:09:34.209Z,21.26
2019-03-11T03:10:34.479Z,21.29
2019-03-11T03:11:34.190Z,21.20
2019-03-11T03:12:34.198Z,21.38
2019-03-11T03:13:34.191Z,21.23
2019-03-11T03:14:34.152Z,21.23
2019-03-11T03:15:34.189Z,21.24
2019-03-11T03:16:34.411Z,21.36
2019-03-11T03:17:34.119Z,21.32
2019-03-11T03:18:34.110Z,21.21
2019-03-11T03:19:34.097Z,21.30
2019-03-11T03:20:34.095Z,21.34
2019-03-11T03:21:34.076Z,21.23
2019-03-11T03:22:34.334Z,21.27
2019-03-11T03:23:34.058Z,21.29
2019-03-11T03:24:34.042Z,21.34
2019-03-11T03:25:35.079Z,21.23
2019-03-11T03:26:34.019Z,21.35
2019-03-11T03:27:34.032Z,21.23
2019-03-11T03:28:34.003Z,21.20
2019-03-11T03:29:33.987Z,21.29
2019-03-11T03:30:33.977Z,21.27
2019-03-11T03:31:33.970Z,21.29
2019-03-11T03:32:33.974Z,21.27
2019-03-11T03:33:34.003Z,21.27
2019-03-11T03:34:34.246Z,21.24
2019-03-11T03:35:33.918Z,21.36
2019-03-11T03:36:33.987Z,21.30
2019-03-11T03:37:33.897Z,21.23
2019-03-11T03:38:33.886Z,21.32
2019-03-11T03:39:33.875Z,21.30
2019-03-11T03:40:34.151Z,21.27
2019-03-11T03:41:33.858Z,21.34
2019-03-11T03:42:33.878Z,21.30
2019-03-11T03:43:33.832Z,21.29
2019-03-11T03:44:33.820Z,21.23
2019-03-11T03:45:33.810Z,21.23
2019-03-11T03:46:34.121Z,21.26
2019-03-11T03:47:33.786Z,21.24
2019-03-11T03:48:33.815Z,21.26
2019-03-11T03:49:33.763Z,21.23
2019-03-11T03:50:33.758Z,21.23
2019-03-11T03:51:33.748Z,21.34
2019-03-11T03:52:33.751Z,21.20
2019-03-11T03:53:33.719Z,21.23
2019-03-11T03:54:33.711Z,21.19
2019-03-11T03:55:33.699Z,21.29
2019-03-11T03:56:33.689Z,21.32
2019-03-11T03:57:33.677Z,21.26
2019-03-11T03:58:33.672Z,21.27
2019-03-11T03:59:33.662Z,21.35
2019-03-11T04:00:33.645Z,21.20
2019-03-11T04:01:33.631Z,21.34
2019-03-11T04:02:33.620Z,21.24
2019-03-11T04:03:33.620Z,21.39
2019-03-11T04:04:33.621Z,21.32
2019-03-11T04:05:33.595Z,21.24
2019-03-11T04:06:33.575Z,21.21
2019-03-11T04:07:33.577Z,21.27
2019-03-11T04:08:33.554Z,21.35
2019-03-11T04:09:33.543Z,21.30
2019-03-11T04:10:33.544Z,21.24
2019-03-11T04:11:33.521Z,21.24
2019-03-11T04:12:33.510Z,21.26
2019-03-11T04:13:33.503Z,21.24
2019-03-11T04:14:33.486Z,21.24
2019-03-11T04:15:33.481Z,21.20
2019-03-11T04:16:33.739Z,21.26
2019-03-11T04:17:33.454Z,21.26
2019-03-11T04:18:33.444Z,21.24
2019-03-11T04:19:33.432Z,21.23
2019-03-11T04:20:33.421Z,21.26
2019-03-11T04:21:33.409Z,21.35
2019-03-11T04:22:33.734Z,21.23
2019-03-11T04:23:33.405Z,21.32
2019-03-11T04:24:33.377Z,21.24
2019-03-11T04:25:33.367Z,21.23
2019-03-11T04:26:33.354Z,21.27
2019-03-11T04:27:33.347Z,21.38
2019-03-11T04:28:33.338Z,21.34
2019-03-11T04:29:33.321Z,21.24
2019-03-11T04:30:33.310Z,21.23
2019-03-11T04:31:33.299Z,21.24
2019-03-11T04:32:33.288Z,21.30
2019-03-11T04:33:33.275Z,21.26
2019-03-11T04:34:36.004Z,21.24
2019-03-11T04:35:33.260Z,21.27
2019-03-11T04:36:33.243Z,21.24
2019-03-11T04:37:33.232Z,21.23
2019-03-11T04:38:33.221Z,21.24
2019-03-11T04:39:33.209Z,21.26
2019-03-11T04:40:33.220Z,21.29
2019-03-11T04:41:33.186Z,21.26
2019-03-11T04:42:33.176Z,21.26
2019-03-11T04:43:33.167Z,21.35
2019-03-11T04:44:33.159Z,21.24
2019-03-11T04:45:33.143Z,21.24
2019-03-11T04:46:33.140Z,21.23
2019-03-11T04:47:33.122Z,21.23
2019-03-11T04:48:33.110Z,21.21
2019-03-11T04:49:33.098Z,21.32
2019-03-11T04:50:33.086Z,21.26
2019-03-11T04:51:33.075Z,21.35
2019-03-11T04:52:33.341Z,21.24
2019-03-11T04:53:33.053Z,21.30
2019-03-11T04:54:33.042Z,21.39
2019-03-11T04:55:33.032Z,21.26
2019-03-11T04:56:33.020Z,21.29
2019-03-11T04:57:33.010Z,21.27
2019-03-11T04:58:33.320Z,21.20
2019-03-11T04:59:32.986Z,21.29
2019-03-11T05:00:32.976Z,21.30
2019-03-11T05:01:32.965Z,21.24
2019-03-11T05:02:32.955Z,21.29
2019-03-11T05:03:32.943Z,21.23
2019-03-11T05:04:32.938Z,21.29
2019-03-11T05:05:32.920Z,21.21
2019-03-11T05:06:32.909Z,21.24
2019-03-11T05:07:32.898Z,21.27
2019-03-11T05:08:32.889Z,21.24
2019-03-11T05:09:32.875Z,21.20
2019-03-11T05:10:32.872Z,21.24
2019-03-11T05:11:32.852Z,21.24
2019-03-11T05:12:32.841Z,21.35
2019-03-11T05:13:32.843Z,21.23
2019-03-11T05:14:32.819Z,21.23
2019-03-11T05:15:32.810Z,21.27
2019-03-11T05:16:32.813Z,21.24
2019-03-11T05:17:32.786Z,21.30
2019-03-11T05:18:32.775Z,21.27
2019-03-11T05:19:32.765Z,21.23
2019-03-11T05:20:32.753Z,21.27
2019-03-11T05:21:32.741Z,21.27
2019-03-11T05:22:32.740Z,21.26
2019-03-11T05:23:32.721Z,21.26
2019-03-11T05:24:32.709Z,21.24
2019-03-11T05:25:32.697Z,21.24
2019-03-11T05:26:32.686Z,21.24
2019-03-11T05:27:32.684Z,21.29
2019-03-11T05:28:32.926Z,21.23
2019-03-11T05:29:32.653Z,21.24
2019-03-11T05:30:32.641Z,21.36
2019-03-11T05:31:32.631Z,21.26
2019-03-11T05:32:32.619Z,21.24
2019-03-11T05:33:32.609Z,21.24
2019-03-11T05:34:32.612Z,21.30
2019-03-11T05:35:32.588Z,21.30
2019-03-11T05:36:32.575Z,21.34
2019-03-11T05:37:32.565Z,21.26
2019-03-11T05:38:32.556Z,21.21
2019-03-11T05:39:32.542Z,21.34
2019-03-11T05:40:32.538Z,21.23
2019-03-11T05:41:32.522Z,21.32
2019-03-11T05:42:32.509Z,21.29
2019-03-11T05:43:32.497Z,21.34
2019-03-11T05:44:32.488Z,21.23
2019-03-11T05:45:32.476Z,21.27
2019-03-11T05:46:32.471Z,21.30
2019-03-11T05:47:32.455Z,21.27
2019-03-11T05:48:32.443Z,21.21
2019-03-11T05:49:32.432Z,21.24
2019-03-11T05:50:32.422Z,21.27
2019-03-11T05:51:32.410Z,21.35
2019-03-11T05:52:32.418Z,21.30
2019-03-11T05:53:32.390Z,21.23
2019-03-11T05:54:32.378Z,21.27
2019-03-11T05:55:32.366Z,21.29
2019-03-11T05:56:32.356Z,21.23
2019-03-11T05:57:32.353Z,21.35
2019-03-11T05:58:32.616Z,21.26
2019-03-11T05:59:32.322Z,21.24
2019-03-11T06:00:32.313Z,21.35
2019-03-11T06:01:32.299Z,21.35
2019-03-11T06:02:32.289Z,21.26
2019-03-11T06:03:32.278Z,21.29
2019-03-11T06:04:32.590Z,21.35
2019-03-11T06:05:32.256Z,21.30
2019-03-11T06:06:32.244Z,21.36
2019-03-11T06:07:32.232Z,21.36
2019-03-11T06:08:32.222Z,21.32
2019-03-11T06:09:32.211Z,21.39
2019-03-11T06:10:32.206Z,21.41
2019-03-11T06:11:32.189Z,21.34
2019-03-11T06:12:32.180Z,21.34
2019-03-11T06:13:35.856Z,21.39
2019-03-11T06:14:32.156Z,21.48
2019-03-11T06:15:32.145Z,21.44
2019-03-11T06:16:32.406Z,21.45
2019-03-11T06:17:32.143Z,21.44
2019-03-11T06:18:32.111Z,21.48
2019-03-11T06:19:32.100Z,21.38
2019-03-11T06:20:32.120Z,21.46
2019-03-11T06:21:32.078Z,21.57
2019-03-11T06:22:32.085Z,21.53
2019-03-11T06:23:32.058Z,21.53
2019-03-11T06:24:32.046Z,21.54
2019-03-11T06:25:32.034Z,21.46
2019-03-11T06:26:32.022Z,21.51
2019-03-11T06:27:32.012Z,21.56
2019-03-11T06:28:32.009Z,21.53
2019-03-11T06:29:31.988Z,21.42
2019-03-11T06:30:31.978Z,21.32
2019-03-11T06:31:31.967Z,21.30
2019-03-11T06:32:31.957Z,21.23
2019-03-11T06:33:31.946Z,21.08
2019-03-11T06:34:31.944Z,20.96
2019-03-11T06:35:31.924Z,20.76
2019-03-11T06:36:31.915Z,20.74
2019-03-11T06:37:31.906Z,20.59
2019-03-11T06:38:31.928Z,20.59
2019-03-11T06:39:31.878Z,20.46
2019-03-11T06:40:31.880Z,20.51
2019-03-11T06:41:31.855Z,20.41
2019-03-11T06:42:31.849Z,20.34
2019-03-11T06:43:31.903Z,20.41
2019-03-11T06:44:31.822Z,20.39
2019-03-11T06:45:31.812Z,20.41
2019-03-11T06:46:32.075Z,20.47
2019-03-11T06:47:31.790Z,20.47
2019-03-11T06:48:31.777Z,20.54
2019-03-11T06:49:31.766Z,20.61
2019-03-11T06:50:31.762Z,20.62
2019-03-11T06:51:31.744Z,20.65
2019-03-11T06:52:32.233Z,20.71
2019-03-11T06:53:31.724Z,20.81
2019-03-11T06:54:31.712Z,20.84
2019-03-11T06:55:31.700Z,20.81
2019-03-11T06:56:31.692Z,20.87
2019-03-11T06:57:31.677Z,20.84
2019-03-11T06:58:31.686Z,20.95
2019-03-11T06:59:31.656Z,20.96
2019-03-11T07:00:31.645Z,20.98
2019-03-11T07:01:31.634Z,21.04
2019-03-11T07:02:31.623Z,21.04
2019-03-11T07:03:31.612Z,21.11
2019-03-11T07:04:31.883Z,21.11
2019-03-11T07:05:31.588Z,21.13
2019-03-11T07:06:31.579Z,21.14
2019-03-11T07:07:31.569Z,21.17
2019-03-11T07:08:31.562Z,21.20
2019-03-11T07:09:31.548Z,21.20
2019-03-11T07:10:31.559Z,21.21
2019-03-11T07:11:31.525Z,21.26
2019-03-11T07:12:31.509Z,21.24
2019-03-11T07:13:31.500Z,21.24
2019-03-11T07:14:31.487Z,21.17
2019-03-11T07:15:31.481Z,21.26
2019-03-11T07:16:31.473Z,21.26
2019-03-11T07:17:31.457Z,21.24
2019-03-11T07:18:31.447Z,21.27
2019-03-11T07:19:31.436Z,21.30
2019-03-11T07:20:31.422Z,21.26
2019-03-11T07:21:31.466Z,21.23
2019-03-11T07:22:31.679Z,21.21
2019-03-11T07:23:31.392Z,21.35
2019-03-11T07:24:31.377Z,21.27
2019-03-11T07:25:31.368Z,21.36
2019-03-11T07:26:31.360Z,21.32
2019-03-11T07:27:31.344Z,21.35
2019-03-11T07:28:31.345Z,21.34
2019-03-11T07:29:31.323Z,21.34
2019-03-11T07:30:31.314Z,21.44
2019-03-11T07:31:31.354Z,21.39
2019-03-11T07:32:31.288Z,21.41
2019-03-11T07:33:31.291Z,21.41
2019-03-11T07:34:31.272Z,21.29
2019-03-11T07:35:31.255Z,21.38
2019-03-11T07:36:31.243Z,21.36
2019-03-11T07:37:31.236Z,21.34
2019-03-11T07:38:31.223Z,21.34
2019-03-11T07:39:32.618Z,21.35
2019-03-11T07:40:31.478Z,21.45
2019-03-11T07:41:31.199Z,21.45
2019-03-11T07:42:31.182Z,21.35
2019-03-11T07:43:31.167Z,21.45
2019-03-11T07:44:31.157Z,21.41
2019-03-11T07:45:31.144Z,21.45
2019-03-11T07:46:31.191Z,21.36
2019-03-11T07:47:31.126Z,21.44
2019-03-11T07:48:31.128Z,21.44
2019-03-11T07:49:31.098Z,21.44
2019-03-11T07:50:31.087Z,21.45
2019-03-11T07:51:31.079Z,21.44
2019-03-11T07:52:31.340Z,21.38
2019-03-11T07:53:31.056Z,21.41
2019-03-11T07:54:35.837Z,21.45
2019-03-11T07:55:32.034Z,21.53
2019-03-11T07:56:31.023Z,21.50
2019-03-11T07:57:31.012Z,21.48
2019-03-11T07:58:31.286Z,21.50
2019-03-11T07:59:30.991Z,21.51
2019-03-11T08:00:30.982Z,21.51
2019-03-11T08:01:30.968Z,21.45
2019-03-11T08:02:30.954Z,21.50
2019-03-11T08:03:30.944Z,21.56
2019-03-11T08:04:31.211Z,21.48
2019-03-11T08:05:30.942Z,21.44
2019-03-11T08:06:30.917Z,21.46
2019-03-11T08:07:30.902Z,21.51
2019-03-11T08:08:30.892Z,21.53
2019-03-11T08:09:37.990Z,21.50
2019-03-11T08:10:31.874Z,21.39
2019-03-11T08:11:31.428Z,21.53
2019-03-11T08:12:30.843Z,21.53
2019-03-11T08:13:30.838Z,21.53
2019-03-11T08:14:30.821Z,21.48
2019-03-11T08:15:30.815Z,21.57
2019-03-11T08:16:31.128Z,21.50
2019-03-11T08:17:30.790Z,21.50
2019-03-11T08:18:34.892Z,21.44
2019-03-11T08:19:30.768Z,21.51
2019-03-11T08:20:30.759Z,21.51
2019-03-11T08:21:30.745Z,21.36
2019-03-11T08:22:31.011Z,21.53
2019-03-11T08:23:30.722Z,21.50
2019-03-11T08:24:30.712Z,21.51
2019-03-11T08:25:30.700Z,21.53
2019-03-11T08:26:30.693Z,21.48
2019-03-11T08:27:30.679Z,21.50
2019-03-11T08:28:30.943Z,21.46
2019-03-11T08:29:30.659Z,21.38
2019-03-11T08:30:30.645Z,21.41
2019-03-11T08:31:30.634Z,21.48
2019-03-11T08:32:30.675Z,21.36
2019-03-11T08:33:30.612Z,21.44
2019-03-11T08:34:30.624Z,21.51
2019-03-11T08:35:30.590Z,21.44
2019-03-11T08:36:30.578Z,21.39
2019-03-11T08:37:30.573Z,21.41
2019-03-11T08:38:30.556Z,21.42
2019-03-11T08:39:30.546Z,21.51
2019-03-11T08:40:30.818Z,21.45
2019-03-11T08:41:30.523Z,21.48
2019-03-11T08:42:30.512Z,21.50
2019-03-11T08:43:30.500Z,21.48
2019-03-11T08:44:30.492Z,21.44
2019-03-11T08:45:30.477Z,21.50
2019-03-11T08:46:30.793Z,21.51
2019-03-11T08:47:30.461Z,21.53
2019-03-11T08:48:30.444Z,21.39
2019-03-11T08:49:30.434Z,21.45
2019-03-11T08:50:30.434Z,21.42
2019-03-11T08:51:30.412Z,21.48
2019-03-11T08:52:30.414Z,21.48
2019-03-11T08:53:30.419Z,21.48
2019-03-11T08:54:30.378Z,21.53
2019-03-11T08:55:30.369Z,21.51
2019-03-11T08:56:30.355Z,21.53
2019-03-11T08:57:30.348Z,21.54
2019-03-11T08:58:30.355Z,21.53
2019-03-11T08:59:30.324Z,21.59
2019-03-11T09:00:30.312Z,21.54
2019-03-11T09:01:30.302Z,21.67
2019-03-11T09:02:30.291Z,21.63
2019-03-11T09:03:30.285Z,21.67
2019-03-11T09:04:30.609Z,21.69
2019-03-11T09:05:30.257Z,21.72
2019-03-11T09:06:30.245Z,21.75
2019-03-11T09:07:30.237Z,21.69
2019-03-11T09:08:30.226Z,21.79
2019-03-11T09:09:31.697Z,21.78
2019-03-11T09:10:30.488Z,21.82
2019-03-11T09:11:30.195Z,21.91
2019-03-11T09:12:30.181Z,21.88
2019-03-11T09:13:30.679Z,21.85
2019-03-11T09:14:30.156Z,21.92
2019-03-11T09:15:30.145Z,21.92
2019-03-11T09:16:30.462Z,21.92
2019-03-11T09:17:30.124Z,21.98
2019-03-11T09:18:30.111Z,21.98
2019-03-11T09:19:30.101Z,21.97
2019-03-11T09:20:30.092Z,21.92
2019-03-11T09:21:30.080Z,22.02
2019-03-11T09:22:30.343Z,21.98
2019-03-11T09:23:30.058Z,21.95
2019-03-11T09:24:30.049Z,21.99
2019-03-11T09:25:30.035Z,21.98
2019-03-11T09:26:30.025Z,21.99
2019-03-11T09:27:30.013Z,22.10
2019-03-11T09:28:30.117Z,22.10
2019-03-11T09:29:29.990Z,22.06
2019-03-11T09:30:29.985Z,22.04
2019-03-11T09:31:29.969Z,22.07
2019-03-11T09:32:29.959Z,22.10
2019-03-11T09:33:29.946Z,22.13
2019-03-11T09:34:30.216Z,22.13
2019-03-11T09:35:29.925Z,22.17
2019-03-11T09:36:29.912Z,22.07
2019-03-11T09:37:29.903Z,22.10
2019-03-11T09:38:29.892Z,22.10
2019-03-11T09:39:29.883Z,22.14
2019-03-11T09:40:30.789Z,22.10
2019-03-11T09:41:29.862Z,22.12
2019-03-11T09:42:29.847Z,22.12
2019-03-11T09:43:29.890Z,22.10
2019-03-11T09:44:29.828Z,22.10
2019-03-11T09:45:29.813Z,22.12
2019-03-11T09:46:30.130Z,21.98
2019-03-11T09:47:29.793Z,22.02
2019-03-11T09:48:29.781Z,21.90
2019-03-11T09:49:29.770Z,21.99
2019-03-11T09:50:29.761Z,21.98
2019-03-11T09:51:29.751Z,21.95
2019-03-11T09:52:29.756Z,21.97
2019-03-11T09:53:29.727Z,22.06
2019-03-11T09:54:29.715Z,22.02
2019-03-11T09:55:29.706Z,21.88
2019-03-11T09:56:29.691Z,22.07
2019-03-11T09:57:29.683Z,21.99
2019-03-11T09:58:29.679Z,22.04
2019-03-11T09:59:29.660Z,21.98
2019-03-11T10:00:29.650Z,21.99
2019-03-11T10:01:29.640Z,21.98
2019-03-11T10:02:29.627Z,21.95
2019-03-11T10:03:29.628Z,22.02
2019-03-11T10:04:29.609Z,21.99
2019-03-11T10:05:29.595Z,21.95
2019-03-11T10:06:29.581Z,22.01
2019-03-11T10:07:29.570Z,22.04
2019-03-11T10:08:29.561Z,21.95
2019-03-11T10:09:29.549Z,21.95
2019-03-11T10:10:29.562Z,21.99
2019-03-11T10:11:29.529Z,21.98
2019-03-11T10:12:29.514Z,21.95
2019-03-11T10:13:29.508Z,22.01
2019-03-11T10:14:29.493Z,21.95
2019-03-11T10:15:29.484Z,21.92
2019-03-11T10:16:29.804Z,22.02
2019-03-11T10:17:29.461Z,21.98
2019-03-11T10:18:29.448Z,21.97
2019-03-11T10:19:29.439Z,21.99
2019-03-11T10:20:29.427Z,21.98
2019-03-11T10:21:29.420Z,21.99
2019-03-11T10:22:29.411Z,22.01
2019-03-11T10:23:32.378Z,22.02
2019-03-11T10:24:29.382Z,21.94
2019-03-11T10:25:29.372Z,22.01
2019-03-11T10:26:29.362Z,22.02
2019-03-11T10:27:29.351Z,21.94
2019-03-11T10:28:29.661Z,21.99
2019-03-11T10:29:29.331Z,21.95
2019-03-11T10:30:29.317Z,21.97
2019-03-11T10:31:29.303Z,21.97
2019-03-11T10:32:29.293Z,21.97
2019-03-11T10:33:29.286Z,21.97
2019-03-11T10:34:29.292Z,21.94
2019-03-11T10:35:32.398Z,21.98
2019-03-11T10:36:29.255Z,22.02
2019-03-11T10:37:29.242Z,21.97
2019-03-11T10:38:29.229Z,21.99
2019-03-11T10:39:29.215Z,21.88
2019-03-11T10:40:29.485Z,21.99
2019-03-11T10:41:29.195Z,21.98
2019-03-11T10:42:29.183Z,22.01
2019-03-11T10:43:29.170Z,21.99
2019-03-11T10:44:29.159Z,22.01
2019-03-11T10:45:31.629Z,22.02
2019-03-11T10:46:29.164Z,21.97
2019-03-11T10:47:29.134Z,21.99
2019-03-11T10:48:37.228Z,21.98
2019-03-11T10:49:30.105Z,21.97
2019-03-11T10:50:29.095Z,21.99
2019-03-11T10:51:29.083Z,21.97
2019-03-11T10:52:29.079Z,21.99
2019-03-11T10:53:29.074Z,21.97
2019-03-11T10:54:29.049Z,21.97
2019-03-11T10:55:29.039Z,22.04
2019-03-11T10:56:29.026Z,22.09
2019-03-11T10:57:29.016Z,22.14
2019-03-11T10:58:29.371Z,22.06
2019-03-11T10:59:28.994Z,22.01
2019-03-11T11:00:28.982Z,22.14
2019-03-11T11:01:28.972Z,22.14
2019-03-11T11:02:28.961Z,22.16
2019-03-11T11:03:28.952Z,22.13
2019-03-11T11:04:28.945Z,22.13
2019-03-11T11:05:28.928Z,22.23
2019-03-11T11:06:28.917Z,22.19
2019-03-11T11:07:28.905Z,22.22
2019-03-11T11:08:28.896Z,22.25
2019-03-11T11:09:28.884Z,22.22
2019-03-11T11:10:28.879Z,22.16
2019-03-11T11:11:28.862Z,22.22
2019-03-11T11:12:28.851Z,22.28
2019-03-11T11:13:28.839Z,22.28
2019-03-11T11:14:28.829Z,22.23
2019-03-11T11:15:28.819Z,22.32
2019-03-11T11:16:28.812Z,22.27
2019-03-11T11:17:28.795Z,22.39
2019-03-11T11:18:28.789Z,22.28
2019-03-11T11:19:28.772Z,22.25
2019-03-11T11:20:28.765Z,22.27
2019-03-11T11:21:28.751Z,22.29
2019-03-11T11:22:28.747Z,22.29
2019-03-11T11:23:28.728Z,22.25
2019-03-11T11:24:28.717Z,22.22
2019-03-11T11:25:28.706Z,22.29
2019-03-11T11:26:28.697Z,22.22
2019-03-11T11:27:28.685Z,22.23
2019-03-11T11:28:28.679Z,22.23
2019-03-11T11:29:28.668Z,22.19
2019-03-11T11:30:28.651Z,22.22
2019-03-11T11:31:28.639Z,22.19
2019-03-11T11:32:28.633Z,22.19
2019-03-11T11:33:28.621Z,22.20
2019-03-11T11:34:28.626Z,22.14
2019-03-11T11:35:28.597Z,22.12
2019-03-11T11:36:28.585Z,22.14
2019-03-11T11:37:28.573Z,22.19
2019-03-11T11:38:28.562Z,22.16
2019-03-11T11:39:28.556Z,22.13
2019-03-11T11:40:28.550Z,22.16
2019-03-11T11:41:28.530Z,22.13
2019-03-11T11:42:28.522Z,22.12
2019-03-11T11:43:28.507Z,22.12
2019-03-11T11:44:28.495Z,22.06
2019-03-11T11:45:28.486Z,22.09
2019-03-11T11:46:28.482Z,22.16
2019-03-11T11:47:28.463Z,22.12
2019-03-11T11:48:28.452Z,22.13
2019-03-11T11:49:28.442Z,22.17
2019-03-11T11:50:28.429Z,22.07
2019-03-11T11:51:28.461Z,22.10
2019-03-11T11:52:28.692Z,21.97
2019-03-11T11:53:28.396Z,22.10
2019-03-11T11:54:28.385Z,22.07
2019-03-11T11:55:28.375Z,22.07
2019-03-11T11:56:28.364Z,22.10
2019-03-11T11:57:28.353Z,22.07
2019-03-11T11:58:28.349Z,22.10
2019-03-11T11:59:28.331Z,22.13
2019-03-11T12:00:28.317Z,22.12
2019-03-11T12:01:28.308Z,22.13
2019-03-11T12:02:28.297Z,22.10
2019-03-11T12:03:28.285Z,22.13
2019-03-11T12:04:28.312Z,22.06
2019-03-11T12:05:28.263Z,22.09
2019-03-11T12:06:28.253Z,22.13
2019-03-11T12:07:28.309Z,22.12
2019-03-11T12:08:28.231Z,22.07
2019-03-11T12:09:28.221Z,22.10
2019-03-11T12:10:28.532Z,22.06
2019-03-11T12:11:28.197Z,22.06
2019-03-11T12:12:28.188Z,22.13
2019-03-11T12:13:28.174Z,22.12
2019-03-11T12:14:28.164Z,22.10
2019-03-11T12:15:28.153Z,22.12
2019-03-11T12:16:28.424Z,22.12
2019-03-11T12:17:28.130Z,22.07
2019-03-11T12:18:28.123Z,22.13
2019-03-11T12:19:28.108Z,22.10
2019-03-11T12:20:28.099Z,22.13
2019-03-11T12:21:28.086Z,22.16
2019-03-11T12:22:29.820Z,22.16
2019-03-11T12:23:28.069Z,22.09
2019-03-11T12:24:28.052Z,22.12
2019-03-11T12:25:28.040Z,22.14
2019-03-11T12:26:28.032Z,22.14
2019-03-11T12:27:28.021Z,22.07
2019-03-11T12:28:28.277Z,22.01
2019-03-11T12:29:28.403Z,22.12
2019-03-11T12:30:27.985Z,22.12
2019-03-11T12:31:27.978Z,22.06
2019-03-11T12:32:27.964Z,22.06
2019-03-11T12:33:27.956Z,22.10
2019-03-11T12:34:27.949Z,22.12
2019-03-11T12:35:27.950Z,22.09
2019-03-11T12:36:27.920Z,22.10
2019-03-11T12:37:27.908Z,22.07
2019-03-11T12:38:28.955Z,22.16
2019-03-11T12:39:27.887Z,22.13
2019-03-11T12:40:28.163Z,22.12
2019-03-11T12:41:27.866Z,22.19
2019-03-11T12:42:27.854Z,22.17
2019-03-11T12:43:27.842Z,22.12
2019-03-11T12:44:27.831Z,22.20
2019-03-11T12:45:27.821Z,22.13
2019-03-11T12:46:27.813Z,22.17
2019-03-11T12:47:27.797Z,22.12
2019-03-11T12:48:27.788Z,22.14
2019-03-11T12:49:27.775Z,22.12
2019-03-11T12:50:27.769Z,22.14
2019-03-11T12:51:27.753Z,22.07
2019-03-11T12:52:48.740Z,22.17